Itasca, IL

10:39 CDT le 18 septembre 2014 (GMT -0500)
Du Page | Change Station
CLOSE
Current Station
Aéroport
Location: Chicago DuPage,
Altitude: 758 ft
Stations météo à proximité

Alt. 758 ft 41.90 °N, 88.25 °W | Updated 20 minutes ago

Couvert
Couvert
63 ° F
Paraît 63 ° F
N
7
Vent Variable Vent de NNE

Aujourd'hui
Haut(e) -- | Bas -- ° F
--% Risque de précip.
Hier
Haut(e) -- | Bas -- ° F
Precip. -- pouce
6:35 AM 6:56 PM
Lune descendante, 26% visible
Pression 30.16 pouce
Visibilité 8.0 Miles terrestres
Nuages Nuageux 1000 ft
Couvert 1400 ft
Point de rosée 56 ° F
Humidité 78%
Précipitations 0.00 pouce
Profondeur de la couche neigeuse Non disponible.
UV 1 sur 12
Pollen 4.40 sur 12
Ozone Bon
PM2.5 Moyen
Flu Activity Non disponible.
SPECI KDPA 181519Z 03006KT 8SM BKN010 OVC014 17/13 A3016 RMK AO2 CIG 007V012 T01720133

More Conditions Fewer Conditions

Pression 30.16 pouce
Visibilité 8.0 Miles terrestres
Nuages Nuageux 1000 ft
Couvert 1400 ft
Point de rosée 56 ° F
Humidité 78%
Précipitations 0.00 pouce
Profondeur de la couche neigeuse Non disponible.
UV 1 sur 12
Pollen 4.40 sur 12
Ozone Bon
PM2.5 Moyen
Flu Activity Non disponible.
SPECI KDPA 181519Z 03006KT 8SM BKN010 OVC014 17/13 A3016 RMK AO2 CIG 007V012 T01720133

More Conditions Fewer Conditions

10-Day Weather Forecast

Almanac

Astronomie

Sep. 18, 2014 Lever Coucher
Temps réel 06:35 CDT 18:56 CDT
Crépuscule civil 06:07 CDT 19:24 CDT
Crépuscule nautique 05:34 CDT 19:56 CDT
Crépuscule astronomique 05:00 CDT 20:30 CDT
Lune 01:23 CDT 15:50 CDT
Durée de lumière visible 13h 16m
Longueur du jour
12h 21m
Tomorrow will be 2m 48s shorter.
Lune descendante, 26% of the Moon is Illuminated
Aujourd'hui
Lune descendante
Sep 24
Nouveau
Oct 1
Premier quartier
Oct 8
Pleine lune
Oct 15
Dernier quartier

Extrêmes aujourd'hui

State Highs State Lows

Community

WunderPhotos

Upload Photos

1,754,368 Photos téléchargées !

Nearby

Qualité de l'air

  Qualité de l'air Indice de la qualité de l'air Polluant
Hier Moyen
PM2.5
Hier Bon
OZONE
Actuel Moyen
PM2.5
Actuel Bon
OZONE
jeudi Moyen
PM2.5
vendredi Moyen
PM2.5

Épaisseur de neige

Station Depth Altitude
Pas de nouvelles chutes de neige

Activité sismique

Ville Distance Mag. Time & Date
No recent earthquake activity has been reported nearby.
Minimum magnitude displayed is 2.5.

Températures des eaux côtières

Lieu Température
Aucun rapport de station

Stations météo à proximité